createdAt,value
2019-03-24T00:00:32.347Z,5.23
2019-03-24T00:03:03.754Z,5.37
2019-03-24T00:05:35.327Z,5.37
2019-03-24T00:08:06.315Z,5.23
2019-03-24T00:10:37.653Z,4.73
2019-03-24T00:13:09.362Z,5.57
2019-03-24T00:15:40.640Z,5.37
2019-03-24T00:18:11.983Z,5.23
2019-03-24T00:20:45.987Z,5.60
2019-03-24T00:23:17.727Z,5.17
2019-03-24T00:25:48.974Z,4.87
2019-03-24T00:28:20.866Z,4.57
2019-03-24T00:30:52.045Z,5.47
2019-03-24T00:33:23.456Z,5.20
2019-03-24T00:35:55.376Z,6.00
2019-03-24T00:38:26.927Z,6.17
2019-03-24T00:40:59.141Z,4.97
2019-03-24T00:43:30.660Z,5.83
2019-03-24T00:46:02.257Z,6.60
2019-03-24T00:48:33.715Z,6.10
2019-03-24T00:51:04.962Z,5.73
2019-03-24T00:53:36.260Z,5.70
2019-03-24T00:56:07.750Z,5.13
2019-03-24T00:58:38.931Z,5.00
2019-03-24T01:01:10.387Z,4.70
2019-03-24T01:03:41.701Z,5.50
2019-03-24T01:06:12.944Z,5.40
2019-03-24T01:08:44.120Z,5.23
2019-03-24T01:11:15.229Z,5.20
2019-03-24T01:13:46.498Z,5.10
2019-03-24T01:16:20.591Z,5.60
2019-03-24T01:18:52.489Z,5.33
2019-03-24T01:21:23.870Z,5.10
2019-03-24T01:23:55.963Z,5.73
2019-03-24T01:26:27.021Z,5.17
2019-03-24T01:28:58.476Z,4.90
2019-03-24T01:31:29.769Z,5.57
2019-03-24T01:34:01.023Z,5.83
2019-03-24T01:36:32.297Z,4.93
2019-03-24T01:39:03.728Z,5.23
2019-03-24T01:41:35.094Z,5.77
2019-03-24T01:44:06.538Z,5.40
2019-03-24T01:46:38.060Z,5.23
2019-03-24T01:49:09.371Z,5.00
2019-03-24T01:51:40.936Z,5.70
2019-03-24T01:54:12.241Z,6.10
2019-03-24T01:56:43.836Z,5.27
2019-03-24T01:59:15.013Z,5.33
2019-03-24T02:01:46.135Z,5.63
2019-03-24T02:04:17.456Z,5.00
2019-03-24T02:06:48.683Z,5.00
2019-03-24T02:09:20.182Z,5.60
2019-03-24T02:11:53.601Z,5.70
2019-03-24T02:14:24.876Z,5.00
2019-03-24T02:16:56.104Z,6.10
2019-03-24T02:19:27.585Z,5.53
2019-03-24T02:21:59.469Z,5.30
2019-03-24T02:24:30.683Z,6.27
2019-03-24T02:27:01.824Z,5.60
2019-03-24T02:29:32.966Z,5.57
2019-03-24T02:32:04.638Z,5.80
2019-03-24T02:34:36.082Z,5.63
2019-03-24T02:37:07.750Z,5.83
2019-03-24T02:39:38.976Z,6.20
2019-03-24T02:42:10.148Z,5.57
2019-03-24T02:44:42.393Z,7.40
2019-03-24T02:47:13.909Z,6.57
2019-03-24T02:49:45.204Z,6.43
2019-03-24T02:52:16.554Z,6.27
2019-03-24T02:54:47.684Z,6.23
2019-03-24T02:57:18.957Z,6.53
2019-03-24T02:59:50.376Z,6.63
2019-03-24T03:02:21.885Z,6.87
2019-03-24T03:04:53.358Z,6.40
2019-03-24T03:07:24.686Z,5.80
2019-03-24T03:09:55.917Z,6.50
2019-03-24T03:12:27.328Z,6.13
2019-03-24T03:14:58.489Z,6.00
2019-03-24T03:17:30.088Z,6.23
2019-03-24T03:20:01.277Z,6.13
2019-03-24T03:22:32.450Z,7.07
2019-03-24T03:25:03.750Z,6.57
2019-03-24T03:27:34.958Z,5.60
2019-03-24T03:30:07.762Z,6.07
2019-03-24T03:32:39.881Z,5.67
2019-03-24T03:35:12.243Z,6.07
2019-03-24T03:37:43.706Z,6.20
2019-03-24T03:40:15.054Z,6.60
2019-03-24T03:42:46.221Z,5.93
2019-03-24T03:45:26.119Z,6.60
2019-03-24T03:47:57.653Z,6.63
2019-03-24T03:50:28.874Z,6.70
2019-03-24T03:53:00.202Z,7.30
2019-03-24T03:55:31.686Z,7.10
2019-03-24T03:58:03.089Z,6.53
2019-03-24T04:00:35.689Z,6.97
2019-03-24T04:03:08.064Z,7.37
2019-03-24T04:05:39.427Z,7.00
2019-03-24T04:08:10.945Z,7.17
2019-03-24T04:10:42.030Z,7.17
2019-03-24T04:13:13.452Z,7.10
2019-03-24T04:15:45.837Z,7.20
2019-03-24T04:18:17.432Z,6.87
2019-03-24T04:20:48.979Z,7.20
2019-03-24T04:23:20.365Z,6.53
2019-03-24T04:25:51.983Z,6.50
2019-03-24T04:28:23.454Z,6.83
2019-03-24T04:30:54.505Z,7.17
2019-03-24T04:33:25.781Z,6.30
2019-03-24T04:35:58.847Z,6.93
2019-03-24T04:38:30.142Z,6.70
2019-03-24T04:41:01.410Z,6.73
2019-03-24T04:43:32.746Z,6.80
2019-03-24T04:46:03.944Z,6.90
2019-03-24T04:48:35.220Z,6.90
2019-03-24T04:51:06.401Z,7.80
2019-03-24T04:53:38.083Z,7.70
2019-03-24T04:56:10.234Z,7.20
2019-03-24T04:58:42.725Z,6.50
2019-03-24T05:01:14.057Z,7.63
2019-03-24T05:03:45.284Z,7.80
2019-03-24T05:06:17.417Z,7.03
2019-03-24T05:08:50.182Z,7.87
2019-03-24T05:11:21.908Z,7.17
2019-03-24T05:13:53.487Z,7.77
2019-03-24T05:16:24.679Z,6.77
2019-03-24T05:18:55.877Z,7.57
2019-03-24T05:21:26.943Z,7.17
2019-03-24T05:23:58.209Z,8.00
2019-03-24T05:26:29.686Z,7.40
2019-03-24T05:29:00.880Z,8.33
2019-03-24T05:31:32.478Z,7.47
2019-03-24T05:34:03.794Z,8.00
2019-03-24T05:36:35.309Z,8.10
2019-03-24T05:39:07.708Z,7.37
2019-03-24T05:41:39.539Z,7.03
2019-03-24T05:44:11.032Z,7.27
2019-03-24T05:46:42.444Z,6.97
2019-03-24T05:49:14.964Z,7.43
2019-03-24T05:51:46.271Z,7.70
2019-03-24T05:54:17.457Z,8.17
2019-03-24T05:56:49.012Z,8.07
2019-03-24T05:59:21.042Z,7.43
2019-03-24T06:01:52.530Z,7.57
2019-03-24T06:04:24.014Z,9.00
2019-03-24T06:06:55.125Z,7.50
2019-03-24T06:09:27.395Z,7.73
2019-03-24T06:11:58.617Z,7.93
2019-03-24T06:14:30.057Z,8.03
2019-03-24T06:17:01.552Z,7.53
2019-03-24T06:19:32.733Z,8.60
2019-03-24T06:22:04.003Z,7.50
2019-03-24T06:24:35.576Z,8.57
2019-03-24T06:27:07.098Z,7.73
2019-03-24T06:29:38.477Z,8.00
2019-03-24T06:32:09.747Z,9.70
2019-03-24T06:34:42.029Z,7.53
2019-03-24T06:37:13.476Z,8.87
2019-03-24T06:39:46.341Z,9.20
2019-03-24T06:42:17.626Z,9.53
2019-03-24T06:44:49.146Z,10.47
2019-03-24T06:47:20.248Z,8.77
2019-03-24T06:49:52.009Z,10.67
2019-03-24T06:52:23.467Z,10.53
2019-03-24T06:54:54.844Z,11.00
2019-03-24T06:57:25.976Z,9.40
2019-03-24T06:59:58.438Z,9.47
2019-03-24T07:02:29.856Z,11.07
2019-03-24T07:05:04.225Z,10.50
2019-03-24T07:07:35.797Z,11.40
2019-03-24T07:10:08.063Z,11.30
2019-03-24T07:12:40.371Z,11.80
2019-03-24T07:15:11.661Z,9.70
2019-03-24T07:17:43.192Z,10.30
2019-03-24T07:20:14.543Z,11.40
2019-03-24T07:22:46.260Z,11.77
2019-03-24T07:25:17.733Z,12.03
2019-03-24T07:27:50.016Z,11.50
2019-03-24T07:30:22.060Z,9.83
2019-03-24T07:32:54.393Z,9.13
2019-03-24T07:35:25.921Z,11.10
2019-03-24T07:37:58.390Z,10.93
2019-03-24T07:40:30.102Z,12.33
2019-03-24T07:43:01.749Z,11.27
2019-03-24T07:45:33.004Z,12.23
2019-03-24T07:48:04.874Z,10.90
2019-03-24T07:50:36.490Z,9.30
2019-03-24T07:53:07.636Z,11.93
2019-03-24T07:55:38.696Z,12.53
2019-03-24T07:58:09.851Z,11.10
2019-03-24T08:00:40.914Z,10.47
2019-03-24T08:03:11.961Z,12.23
2019-03-24T08:05:43.189Z,10.40
2019-03-24T08:08:14.298Z,11.17
2019-03-24T08:10:45.322Z,10.10
2019-03-24T08:13:16.348Z,10.63
2019-03-24T08:15:47.362Z,11.07
2019-03-24T08:18:25.725Z,10.43
2019-03-24T08:20:51.217Z,11.20
2019-03-24T08:23:22.358Z,10.27
2019-03-24T08:25:53.533Z,10.60
2019-03-24T08:28:24.686Z,10.63
2019-03-24T08:30:55.745Z,11.43
2019-03-24T08:33:26.751Z,9.63
2019-03-24T08:35:57.687Z,10.93
2019-03-24T08:38:28.783Z,11.63
2019-03-24T08:41:01.434Z,10.33
2019-03-24T08:43:35.372Z,10.70
2019-03-24T08:46:07.086Z,10.47
2019-03-24T08:48:41.045Z,10.30
2019-03-24T08:51:11.317Z,10.67
2019-03-24T08:53:42.551Z,11.40
2019-03-24T08:56:13.824Z,9.53
2019-03-24T08:58:45.194Z,10.40
2019-03-24T09:01:16.118Z,11.23
2019-03-24T09:03:47.417Z,10.37
2019-03-24T09:06:18.518Z,10.30
2019-03-24T09:08:49.877Z,11.10
2019-03-24T09:11:30.883Z,10.03
2019-03-24T09:13:53.997Z,8.77
2019-03-24T09:16:25.079Z,9.03
2019-03-24T09:18:56.265Z,11.90
2019-03-24T09:21:27.575Z,10.03
2019-03-24T09:23:58.880Z,11.43
2019-03-24T09:26:30.108Z,10.63
2019-03-24T09:29:01.359Z,11.17
2019-03-24T09:31:32.850Z,9.57
2019-03-24T09:34:03.965Z,9.65
2019-03-24T09:36:35.031Z,12.43
2019-03-24T09:39:07.773Z,11.15
2019-03-24T09:41:38.896Z,9.43
2019-03-24T09:44:09.980Z,10.83
2019-03-24T09:46:41.144Z,10.18
2019-03-24T09:49:12.182Z,12.18
2019-03-24T09:51:43.211Z,10.77
2019-03-24T09:54:14.319Z,10.78
2019-03-24T09:56:45.461Z,10.98
2019-03-24T09:59:16.580Z,11.33
2019-03-24T10:01:47.545Z,10.75
2019-03-24T10:04:18.537Z,10.85
2019-03-24T10:06:49.855Z,10.63
2019-03-24T10:09:20.987Z,10.50
2019-03-24T10:11:52.173Z,10.32
2019-03-24T10:14:23.221Z,11.48
2019-03-24T10:16:55.720Z,10.40
2019-03-24T10:19:27.170Z,9.70
2019-03-24T10:21:58.462Z,10.88
2019-03-24T10:24:31.734Z,10.13
2019-03-24T10:27:04.658Z,6.08
2019-03-24T10:29:35.887Z,7.72
2019-03-24T10:32:07.119Z,9.03
2019-03-24T10:34:38.164Z,9.93
2019-03-24T10:37:09.200Z,9.90
2019-03-24T10:39:40.298Z,9.73
2019-03-24T10:42:11.551Z,10.80
2019-03-24T10:44:43.146Z,11.45
2019-03-24T10:47:14.395Z,10.43
2019-03-24T10:49:45.772Z,9.23
2019-03-24T10:52:17.460Z,10.03
2019-03-24T10:54:48.813Z,10.78
2019-03-24T10:57:20.432Z,10.10
2019-03-24T10:59:51.730Z,11.28
2019-03-24T11:02:24.832Z,10.98
2019-03-24T11:04:55.949Z,11.10
2019-03-24T11:07:27.257Z,11.63
2019-03-24T11:09:58.681Z,10.28
2019-03-24T11:12:30.234Z,10.00
2019-03-24T11:15:01.597Z,9.55
2019-03-24T11:17:32.984Z,9.65
2019-03-24T11:20:04.837Z,10.35
2019-03-24T11:22:36.469Z,10.10
2019-03-24T11:25:09.330Z,10.30
2019-03-24T11:27:41.206Z,9.28
2019-03-24T11:30:14.377Z,10.08
2019-03-24T11:32:46.190Z,11.20
2019-03-24T11:35:17.846Z,12.23
2019-03-24T11:37:48.999Z,10.05
2019-03-24T11:40:20.949Z,10.68
2019-03-24T11:42:53.036Z,11.45
2019-03-24T11:45:24.712Z,10.25
2019-03-24T11:47:56.230Z,12.15
2019-03-24T11:50:27.728Z,10.75
2019-03-24T11:52:59.285Z,10.78
2019-03-24T11:55:30.707Z,9.98
2019-03-24T11:58:06.076Z,10.13
2019-03-24T12:00:39.480Z,10.25
2019-03-24T12:03:10.728Z,10.15
2019-03-24T12:05:42.395Z,11.05
2019-03-24T12:08:13.998Z,10.43
2019-03-24T12:10:45.240Z,11.68
2019-03-24T12:13:16.831Z,11.10
2019-03-24T12:15:47.972Z,11.43
2019-03-24T12:18:19.080Z,10.55
2019-03-24T12:20:50.633Z,12.53
2019-03-24T12:23:22.320Z,11.88
2019-03-24T12:25:53.854Z,11.88
2019-03-24T12:28:25.305Z,11.33
2019-03-24T12:30:56.528Z,12.30
2019-03-24T12:33:27.820Z,11.18
2019-03-24T12:35:59.074Z,11.48
2019-03-24T12:38:30.272Z,11.00
2019-03-24T12:41:01.720Z,6.95
2019-03-24T12:43:33.346Z,9.30
2019-03-24T12:46:04.790Z,9.45
2019-03-24T12:48:36.330Z,11.28
2019-03-24T12:51:07.886Z,9.73
2019-03-24T12:53:39.234Z,10.15
2019-03-24T12:56:10.305Z,9.03
2019-03-24T12:58:41.826Z,10.75
2019-03-24T13:01:13.021Z,9.98
2019-03-24T13:03:44.452Z,10.75
2019-03-24T13:06:15.824Z,10.85
2019-03-24T13:08:47.452Z,9.15
2019-03-24T13:11:18.835Z,11.22
2019-03-24T13:13:50.167Z,10.78
2019-03-24T13:16:21.956Z,9.63
2019-03-24T13:18:53.842Z,9.70
2019-03-24T13:21:25.814Z,11.00
2019-03-24T13:23:58.279Z,11.30
2019-03-24T13:26:30.843Z,9.78
2019-03-24T13:29:01.961Z,9.33
2019-03-24T13:31:33.437Z,8.35
2019-03-24T13:34:05.976Z,10.08
2019-03-24T13:36:37.348Z,9.45
2019-03-24T13:39:09.050Z,9.70
2019-03-24T13:41:40.225Z,9.78
2019-03-24T13:44:11.597Z,9.25
2019-03-24T13:46:42.747Z,10.10
2019-03-24T13:49:14.282Z,9.55
2019-03-24T13:51:45.800Z,7.80
2019-03-24T13:54:17.384Z,10.08
2019-03-24T13:56:48.652Z,9.60
2019-03-24T13:59:20.240Z,9.08
2019-03-24T14:01:51.591Z,10.98
2019-03-24T14:04:24.215Z,8.28
2019-03-24T14:06:55.614Z,8.30
2019-03-24T14:09:27.108Z,8.83
2019-03-24T14:11:59.319Z,9.13
2019-03-24T14:14:30.823Z,9.25
2019-03-24T14:17:02.672Z,11.05
2019-03-24T14:19:34.120Z,10.15
2019-03-24T14:22:06.471Z,9.53
2019-03-24T14:24:37.931Z,10.00
2019-03-24T14:27:09.308Z,11.63
2019-03-24T14:29:42.026Z,9.55
2019-03-24T14:32:13.465Z,8.48
2019-03-24T14:34:44.994Z,8.23
2019-03-24T14:37:16.520Z,10.03
2019-03-24T14:39:48.051Z,9.75
2019-03-24T14:42:19.484Z,9.75
2019-03-24T14:44:51.290Z,8.88
2019-03-24T14:47:22.649Z,9.60
2019-03-24T14:49:54.156Z,10.65
2019-03-24T14:52:25.717Z,11.48
2019-03-24T14:54:57.151Z,8.45
2019-03-24T14:57:28.421Z,8.70
2019-03-24T15:00:01.334Z,7.85
2019-03-24T15:02:32.887Z,8.73
2019-03-24T15:05:04.781Z,8.73
2019-03-24T15:07:36.515Z,8.70
2019-03-24T15:10:08.036Z,9.15
2019-03-24T15:12:39.811Z,9.30
2019-03-24T15:15:11.167Z,8.90
2019-03-24T15:17:42.483Z,9.93
2019-03-24T15:20:14.716Z,10.28
2019-03-24T15:22:47.381Z,9.48
2019-03-24T15:25:19.185Z,10.50
2019-03-24T15:27:51.297Z,9.83
2019-03-24T15:30:24.271Z,8.48
2019-03-24T15:32:56.663Z,8.10
2019-03-24T15:35:28.018Z,9.75
2019-03-24T15:38:08.039Z,9.63
2019-03-24T15:40:32.460Z,9.88
2019-03-24T15:43:03.771Z,8.65
2019-03-24T15:45:35.030Z,8.85
2019-03-24T15:48:06.323Z,10.80
2019-03-24T15:50:37.705Z,9.63
2019-03-24T15:53:09.045Z,8.53
2019-03-24T15:55:40.384Z,9.05
2019-03-24T15:58:11.990Z,8.83
2019-03-24T16:00:47.682Z,9.15
2019-03-24T16:03:19.451Z,8.88
2019-03-24T16:05:51.002Z,10.45
2019-03-24T16:08:23.299Z,8.98
2019-03-24T16:10:54.624Z,9.50
2019-03-24T16:13:28.468Z,8.83
2019-03-24T16:16:00.186Z,9.70
2019-03-24T16:18:32.272Z,9.00
2019-03-24T16:21:03.606Z,11.03
2019-03-24T16:23:34.859Z,9.35
2019-03-24T16:26:06.252Z,9.38
2019-03-24T16:28:37.694Z,8.80
2019-03-24T16:31:09.773Z,9.48
2019-03-24T16:33:41.191Z,8.93
2019-03-24T16:36:12.611Z,9.03
2019-03-24T16:38:48.776Z,10.00
2019-03-24T16:41:17.090Z,10.15
2019-03-24T16:43:48.402Z,9.45
2019-03-24T16:46:19.638Z,8.98
2019-03-24T16:48:51.141Z,9.50
2019-03-24T16:51:22.454Z,9.38
2019-03-24T16:53:54.592Z,10.10
2019-03-24T16:56:27.741Z,8.83
2019-03-24T16:58:59.394Z,8.63
2019-03-24T17:01:31.017Z,8.68
2019-03-24T17:04:02.264Z,10.45
2019-03-24T17:06:33.414Z,10.63
2019-03-24T17:09:06.280Z,8.63
2019-03-24T17:11:38.033Z,10.13
2019-03-24T17:14:09.222Z,11.12
2019-03-24T17:16:40.861Z,8.73
2019-03-24T17:19:12.092Z,9.28
2019-03-24T17:21:50.005Z,9.13
2019-03-24T17:24:18.026Z,9.08
2019-03-24T17:26:49.266Z,8.90
2019-03-24T17:29:20.940Z,9.35
2019-03-24T17:31:52.373Z,8.35
2019-03-24T17:34:24.542Z,10.18
2019-03-24T17:36:56.286Z,9.33
2019-03-24T17:39:27.848Z,9.45
2019-03-24T17:41:59.965Z,9.38
2019-03-24T17:44:31.367Z,9.28
2019-03-24T17:47:02.834Z,9.05
2019-03-24T17:49:34.283Z,8.75
2019-03-24T17:52:05.858Z,7.90
2019-03-24T17:54:37.453Z,8.70
2019-03-24T17:57:08.827Z,6.90
2019-03-24T17:59:40.297Z,7.83
2019-03-24T18:02:14.629Z,7.25
2019-03-24T18:04:44.838Z,7.28
2019-03-24T18:07:16.249Z,8.33
2019-03-24T18:09:47.869Z,7.67
2019-03-24T18:12:19.209Z,7.33
2019-03-24T18:14:50.910Z,7.12
2019-03-24T18:17:22.506Z,6.28
2019-03-24T18:19:54.191Z,6.97
2019-03-24T18:22:25.708Z,7.28
2019-03-24T18:25:00.582Z,7.03
2019-03-24T18:27:32.296Z,7.47
2019-03-24T18:30:04.196Z,6.85
2019-03-24T18:32:35.577Z,7.12
2019-03-24T18:35:08.002Z,7.15
2019-03-24T18:37:39.532Z,6.85
2019-03-24T18:40:11.988Z,6.20
2019-03-24T18:42:44.696Z,6.40
2019-03-24T18:45:17.744Z,6.95
2019-03-24T18:47:50.199Z,6.45
2019-03-24T18:50:21.943Z,8.05
2019-03-24T18:52:53.483Z,7.50
2019-03-24T18:55:25.215Z,8.33
2019-03-24T18:57:56.823Z,7.20
2019-03-24T19:00:28.083Z,8.40
2019-03-24T19:02:59.682Z,7.60
2019-03-24T19:05:31.424Z,7.28
2019-03-24T19:08:02.846Z,6.60
2019-03-24T19:10:34.466Z,6.75
2019-03-24T19:13:06.023Z,6.60
2019-03-24T19:15:37.626Z,6.60
2019-03-24T19:18:09.165Z,6.40
2019-03-24T19:20:40.560Z,6.83
2019-03-24T19:23:11.747Z,6.10
2019-03-24T19:25:43.413Z,7.33
2019-03-24T19:28:15.013Z,6.15
2019-03-24T19:30:46.540Z,6.87
2019-03-24T19:33:19.306Z,6.33
2019-03-24T19:35:50.997Z,7.10
2019-03-24T19:38:23.742Z,7.35
2019-03-24T19:40:55.181Z,7.45
2019-03-24T19:43:26.601Z,7.05
2019-03-24T19:45:58.049Z,7.83
2019-03-24T19:48:29.809Z,8.55
2019-03-24T19:51:01.340Z,7.42
2019-03-24T19:53:33.135Z,8.85
2019-03-24T19:56:05.185Z,8.78
2019-03-24T19:58:36.981Z,9.55
2019-03-24T20:01:08.488Z,10.95
2019-03-24T20:03:40.084Z,8.55
2019-03-24T20:06:11.628Z,6.60
2019-03-24T20:08:42.949Z,6.42
2019-03-24T20:11:14.603Z,6.20
2019-03-24T20:13:46.402Z,11.60
2019-03-24T20:16:17.843Z,9.28
2019-03-24T20:18:49.118Z,8.68
2019-03-24T20:21:21.678Z,10.70
2019-03-24T20:23:53.393Z,10.18
2019-03-24T20:26:25.942Z,10.45
2019-03-24T20:28:57.368Z,10.88
2019-03-24T20:31:28.679Z,11.00
2019-03-24T20:34:00.030Z,11.22
2019-03-24T20:36:31.446Z,10.25
2019-03-24T20:39:02.981Z,13.32
2019-03-24T20:41:35.844Z,12.85
2019-03-24T20:44:07.335Z,12.10
2019-03-24T20:46:38.556Z,12.43
2019-03-24T20:49:10.674Z,12.63
2019-03-24T20:51:42.175Z,11.05
2019-03-24T20:54:14.409Z,12.28
2019-03-24T20:56:45.781Z,13.45
2019-03-24T20:59:17.445Z,12.30
2019-03-24T21:01:48.761Z,13.00
2019-03-24T21:04:20.423Z,11.40
2019-03-24T21:06:52.743Z,11.63
2019-03-24T21:09:24.202Z,11.18
2019-03-24T21:11:55.749Z,11.97
2019-03-24T21:14:27.036Z,13.80
2019-03-24T21:16:58.457Z,11.87
2019-03-24T21:19:30.077Z,13.50
2019-03-24T21:22:01.802Z,13.20
2019-03-24T21:24:33.202Z,13.70
2019-03-24T21:27:07.055Z,12.60
2019-03-24T21:29:37.829Z,13.93
2019-03-24T21:32:09.308Z,13.37
2019-03-24T21:34:40.577Z,14.20
2019-03-24T21:37:11.984Z,13.23
2019-03-24T21:39:43.742Z,14.13
2019-03-24T21:42:15.113Z,13.97
2019-03-24T21:44:46.540Z,14.30
2019-03-24T21:47:17.825Z,12.13
2019-03-24T21:49:49.401Z,13.20
2019-03-24T21:52:20.896Z,12.97
2019-03-24T21:54:52.261Z,11.53
2019-03-24T21:57:23.931Z,12.00
2019-03-24T21:59:55.259Z,14.70
2019-03-24T22:02:26.761Z,12.40
2019-03-24T22:04:59.492Z,11.40
2019-03-24T22:07:31.114Z,13.27
2019-03-24T22:10:04.518Z,12.80
2019-03-24T22:12:35.848Z,13.70
2019-03-24T22:15:08.732Z,12.23
2019-03-24T22:17:40.270Z,12.43
2019-03-24T22:20:12.001Z,13.10
2019-03-24T22:22:43.550Z,12.80
2019-03-24T22:25:14.936Z,12.17
2019-03-24T22:27:46.456Z,12.33
2019-03-24T22:30:18.488Z,13.90
2019-03-24T22:32:49.784Z,12.07
2019-03-24T22:35:21.191Z,12.37
2019-03-24T22:37:52.586Z,11.73
2019-03-24T22:40:23.912Z,13.70
2019-03-24T22:42:55.784Z,12.27
2019-03-24T22:45:27.195Z,13.40
2019-03-24T22:47:58.589Z,11.10
2019-03-24T22:50:29.707Z,11.33
2019-03-24T22:53:01.409Z,12.53
2019-03-24T22:55:32.782Z,13.33
2019-03-24T22:58:05.705Z,13.00
2019-03-24T23:00:45.141Z,13.70
2019-03-24T23:03:17.098Z,13.07
2019-03-24T23:05:49.252Z,11.77
2019-03-24T23:08:21.136Z,12.53
2019-03-24T23:10:52.925Z,13.33
2019-03-24T23:13:24.388Z,12.07
2019-03-24T23:15:55.851Z,11.97
2019-03-24T23:18:27.699Z,12.50
2019-03-24T23:20:59.273Z,12.07
2019-03-24T23:23:31.371Z,11.60
2019-03-24T23:26:02.813Z,11.00
2019-03-24T23:28:34.225Z,11.73
2019-03-24T23:31:05.634Z,11.03
2019-03-24T23:33:37.107Z,11.73
2019-03-24T23:36:08.613Z,11.47
2019-03-24T23:38:39.968Z,12.53
2019-03-24T23:41:11.488Z,11.57
2019-03-24T23:43:42.847Z,11.87
2019-03-24T23:46:13.979Z,12.27
2019-03-24T23:48:45.251Z,12.47
2019-03-24T23:51:17.082Z,11.63
2019-03-24T23:53:49.965Z,13.17
2019-03-24T23:56:21.492Z,11.97
2019-03-24T23:58:53.002Z,12.73
